Time;durP1;ratioP1;P1;durP2;ratioP2;P2;SDS_P1;SDS_P2;PMS_P1;PMS_P2;Temp;Humidity;BMP_temperature;BMP_pressure;BME280_temperature;BME280_humidity;BME280_pressure;Samples;Min_cycle;Max_cycle;Signal;HPM_P1;HPM_P2
2022/04/27 00:01:11;;;;;;;14.27;8.18;;;2.90;99.90;;;;;;5038988;28;20053;-84
2022/04/27 00:03:36;;;;;;;13.27;8.45;;;2.80;99.90;;;;;;5056314;28;20048;-84
2022/04/27 00:06:02;;;;;;;16.58;8.70;;;2.80;99.90;;;;;;5054892;28;20079;-84
2022/04/27 00:08:28;;;;;;;14.27;7.88;;;3.10;99.90;;;;;;5056172;28;20049;-84
2022/04/27 00:10:53;;;;;;;15.60;8.77;;;2.70;99.90;;;;;;5021591;28;20057;-84
2022/04/27 00:13:19;;;;;;;13.20;8.18;;;2.60;99.90;;;;;;5038286;28;20048;-84
2022/04/27 00:15:45;;;;;;;13.73;8.45;;;2.80;99.90;;;;;;5056182;28;20041;-85
2022/04/27 00:18:10;;;;;;;11.50;8.50;;;2.60;99.90;;;;;;5038354;28;20057;-84
2022/04/27 00:20:36;;;;;;;16.20;8.93;;;2.90;99.90;;;;;;5055880;28;20053;-85
2022/04/27 00:23:02;;;;;;;13.63;8.40;;;2.60;99.90;;;;;;5038348;28;20399;-84
2022/04/27 00:25:28;;;;;;;15.43;8.77;;;2.70;99.90;;;;;;5055553;28;20049;-85
2022/04/27 00:27:54;;;;;;;12.40;8.25;;;2.70;99.90;;;;;;5054628;28;20052;-85
2022/04/27 00:30:19;;;;;;;14.98;8.90;;;2.70;99.90;;;;;;5055972;28;20399;-85
2022/04/27 00:32:48;;;;;;;15.30;8.80;;;2.60;99.90;;;;;;5037911;28;20131;-84
2022/04/27 00:35:13;;;;;;;17.67;8.82;;;2.50;99.90;;;;;;5038220;28;20049;-85
2022/04/27 00:37:39;;;;;;;14.18;9.10;;;2.50;99.90;;;;;;5055602;28;20052;-85
2022/04/27 00:40:05;;;;;;;20.05;9.77;;;2.50;99.90;;;;;;5055978;28;20192;-85
2022/04/27 00:42:31;;;;;;;16.02;9.43;;;2.40;99.90;;;;;;5037904;28;20049;-85
2022/04/27 00:44:56;;;;;;;13.63;8.88;;;2.40;99.90;;;;;;5037869;28;20040;-85
2022/04/27 00:47:22;;;;;;;14.10;8.52;;;2.40;99.90;;;;;;5037964;28;20051;-85
2022/04/27 00:49:52;;;;;;;17.75;8.60;;;2.50;99.90;;;;;;5021488;28;20115;-85
2022/04/27 00:52:19;;;;;;;17.08;9.38;;;2.40;99.90;;;;;;5037556;28;20494;-84
2022/04/27 00:54:50;;;;;;;14.18;8.48;;;2.40;99.90;;;;;;5037766;28;20139;-85
2022/04/27 00:57:16;;;;;;;12.10;8.52;;;2.50;99.90;;;;;;5055110;28;20052;-84
2022/04/27 00:59:42;;;;;;;14.55;8.20;;;2.40;99.90;;;;;;5055462;28;20044;-84
2022/04/27 01:02:08;;;;;;;16.48;8.45;;;2.40;99.90;;;;;;5055314;28;20045;-84
2022/04/27 01:04:35;;;;;;;14.38;9.00;;;2.40;99.90;;;;;;5055076;28;20428;-85
2022/04/27 01:07:01;;;;;;;13.05;8.10;;;2.40;99.90;;;;;;5037700;28;20059;-85
2022/04/27 01:09:28;;;;;;;16.02;8.98;;;2.50;99.90;;;;;;5055016;28;20398;-84
2022/04/27 01:11:56;;;;;;;17.52;8.82;;;2.60;99.90;;;;;;5054935;28;20048;-85
2022/04/27 01:14:22;;;;;;;12.45;8.18;;;2.60;99.90;;;;;;5037545;28;20543;-84
2022/04/27 01:16:57;;;;;;;16.08;8.68;;;2.70;99.90;;;;;;5055341;28;20499;-86
2022/04/27 01:19:26;;;;;;;15.20;8.88;;;2.70;99.90;;;;;;5055869;28;20053;-84
2022/04/27 01:21:54;;;;;;;18.25;8.85;;;2.80;99.90;;;;;;5055616;28;20052;-83
2022/04/27 01:24:24;;;;;;;15.50;8.70;;;2.70;99.90;;;;;;5056527;28;20049;-90
2022/04/27 01:26:50;;;;;;;15.10;8.60;;;2.70;99.90;;;;;;5038470;28;20049;-84
2022/04/27 01:29:17;;;;;;;14.13;7.93;;;2.70;99.90;;;;;;5040460;28;20051;-85
2022/04/27 01:31:44;;;;;;;12.60;7.72;;;2.70;99.90;;;;;;5058162;28;20045;-84
2022/04/27 01:34:11;;;;;;;15.57;8.32;;;2.70;99.90;;;;;;5023294;28;20064;-84
2022/04/27 01:36:37;;;;;;;13.13;7.55;;;2.60;99.90;;;;;;5040466;28;20048;-84
2022/04/27 01:39:03;;;;;;;13.50;8.07;;;2.60;99.90;;;;;;5039234;28;20167;-85
2022/04/27 01:41:29;;;;;;;14.18;8.73;;;2.50;99.90;;;;;;5037899;28;20052;-85
2022/04/27 01:43:57;;;;;;;17.73;8.00;;;2.50;99.90;;;;;;5037584;28;20049;-85
2022/04/27 01:46:23;;;;;;;13.90;8.07;;;2.40;99.90;;;;;;5036985;28;20442;-84
2022/04/27 01:48:50;;;;;;;13.85;8.55;;;2.40;99.90;;;;;;5054526;28;20051;-87
2022/04/27 01:51:17;;;;;;;20.20;8.70;;;2.40;99.90;;;;;;5054382;28;20037;-85
2022/04/27 01:56:31;;;;;;;13.57;8.80;;;2.30;99.90;;;;;;5054219;28;20564;-84
2022/04/27 01:58:57;;;;;;;13.52;8.30;;;2.30;99.90;;;;;;5036656;28;20457;-84
2022/04/27 02:01:25;;;;;;;17.23;9.93;;;2.30;99.90;;;;;;5054151;28;20080;-84
2022/04/27 02:03:51;;;;;;;17.25;9.57;;;2.30;99.90;;;;;;5053978;28;20080;-85
2022/04/27 02:06:19;;;;;;;22.55;9.13;;;2.30;99.90;;;;;;5054188;28;20051;-87
2022/04/27 02:08:45;;;;;;;18.35;9.50;;;2.20;99.90;;;;;;5053855;28;20053;-84
2022/04/27 02:11:11;;;;;;;15.73;9.27;;;2.10;99.90;;;;;;5019875;28;20051;-84
2022/04/27 02:13:37;;;;;;;17.33;8.48;;;2.00;99.90;;;;;;5036023;28;20052;-84
2022/04/27 02:16:03;;;;;;;15.50;9.57;;;2.00;99.90;;;;;;5053887;28;20047;-84
2022/04/27 02:18:29;;;;;;;22.27;9.55;;;1.90;99.90;;;;;;5036059;28;20135;-84
2022/04/27 02:20:56;;;;;;;20.48;9.40;;;1.80;99.90;;;;;;5035529;28;20057;-84
2022/04/27 02:23:22;;;;;;;15.57;10.07;;;1.80;99.90;;;;;;5035803;28;20061;-85
2022/04/27 02:25:48;;;;;;;17.00;10.27;;;1.90;99.90;;;;;;5036273;28;20056;-84
2022/04/27 02:28:14;;;;;;;18.35;10.25;;;2.00;99.90;;;;;;5035948;28;20049;-84
2022/04/27 02:30:40;;;;;;;15.80;10.25;;;2.00;99.90;;;;;;5052244;28;20196;-84
2022/04/27 02:33:06;;;;;;;19.83;9.82;;;2.10;99.90;;;;;;5051902;28;20103;-85
2022/04/27 02:35:31;;;;;;;19.70;10.70;;;2.20;99.90;;;;;;5053245;28;20052;-84
2022/04/27 02:37:57;;;;;;;19.55;10.70;;;2.40;99.90;;;;;;5053244;28;20441;-84
2022/04/27 02:40:23;;;;;;;22.65;11.07;;;2.50;99.90;;;;;;5053222;28;20041;-85
2022/04/27 02:42:49;;;;;;;18.73;10.20;;;2.90;99.90;;;;;;5053444;28;20047;-85
2022/04/27 02:45:15;;;;;;;16.65;10.40;;;2.80;99.90;;;;;;5035851;28;20467;-84
2022/04/27 02:47:40;;;;;;;20.25;11.85;;;2.90;99.90;;;;;;5053259;28;20132;-84
2022/04/27 02:52:50;;;;;;;16.67;10.32;;;3.20;99.90;;;;;;5035202;28;20098;-85
2022/04/27 02:55:16;;;;;;;17.00;10.10;;;3.30;99.90;;;;;;5035372;28;20045;-85
2022/04/27 02:57:42;;;;;;;13.93;8.75;;;3.40;99.90;;;;;;5053251;28;20049;-85
2022/04/27 03:00:08;;;;;;;17.70;9.45;;;3.50;99.90;;;;;;5052897;28;20132;-84
2022/04/27 03:02:34;;;;;;;18.42;9.13;;;3.50;99.90;;;;;;5035442;28;20131;-84
2022/04/27 03:05:00;;;;;;;18.38;10.23;;;3.80;99.90;;;;;;5035159;28;20135;-84
2022/04/27 03:07:28;;;;;;;15.45;9.70;;;3.60;99.90;;;;;;5052703;28;20059;-84
2022/04/27 03:09:54;;;;;;;14.82;10.50;;;3.60;99.90;;;;;;5052918;28;20053;-85
2022/04/27 03:12:20;;;;;;;18.13;10.55;;;3.70;99.90;;;;;;5052804;28;20041;-85
2022/04/27 03:14:46;;;;;;;15.93;10.13;;;3.70;99.90;;;;;;5035281;28;20049;-84
2022/04/27 03:17:11;;;;;;;16.52;9.55;;;3.70;99.90;;;;;;5034755;28;20052;-85
2022/04/27 03:19:37;;;;;;;17.55;9.93;;;3.70;99.90;;;;;;5034862;28;20080;-84
2022/04/27 03:22:08;;;;;;;14.15;9.07;;;3.70;99.90;;;;;;5019512;28;20058;-88
2022/04/27 03:24:34;;;;;;;16.67;9.65;;;3.80;99.90;;;;;;5032897;28;20057;-85
2022/04/27 03:27:00;;;;;;;17.30;9.77;;;3.80;99.90;;;;;;5032622;28;20068;-85
2022/04/27 03:29:25;;;;;;;20.13;10.85;;;3.80;99.90;;;;;;5015295;28;20129;-84
2022/04/27 03:31:53;;;;;;;17.70;10.65;;;3.80;99.90;;;;;;5031965;28;20042;-84
2022/04/27 03:34:19;;;;;;;15.00;9.13;;;3.90;99.90;;;;;;4998518;28;20532;-84
2022/04/27 03:36:45;;;;;;;16.10;9.75;;;3.90;99.90;;;;;;5015240;28;20053;-85
2022/04/27 03:39:11;;;;;;;16.60;9.90;;;4.00;99.90;;;;;;5015128;28;20045;-84
2022/04/27 03:41:36;;;;;;;15.43;9.57;;;4.10;99.90;;;;;;5032531;28;20041;-84
2022/04/27 03:44:02;;;;;;;13.73;8.77;;;4.10;99.90;;;;;;5015297;28;20395;-84
2022/04/27 03:46:28;;;;;;;13.02;9.13;;;4.10;99.90;;;;;;5032578;28;20122;-86
2022/04/27 03:48:54;;;;;;;19.00;9.82;;;4.20;99.90;;;;;;5032398;28;20187;-84
2022/04/27 03:51:19;;;;;;;15.25;9.27;;;4.20;99.90;;;;;;5014952;28;20053;-84
2022/04/27 03:53:45;;;;;;;14.90;9.27;;;4.20;99.90;;;;;;5032375;28;20075;-84
2022/04/27 03:56:11;;;;;;;16.58;9.32;;;4.20;99.90;;;;;;5015065;28;20100;-85
2022/04/27 03:58:36;;;;;;;15.52;9.02;;;4.30;99.90;;;;;;5031327;28;20065;-85
2022/04/27 04:01:02;;;;;;;17.90;9.32;;;4.30;99.90;;;;;;5032301;28;20111;-84
2022/04/27 04:03:28;;;;;;;12.63;9.18;;;4.40;99.90;;;;;;5014832;28;20100;-84
2022/04/27 04:05:53;;;;;;;15.75;10.13;;;4.70;99.90;;;;;;5014733;28;20060;-84
2022/04/27 04:08:19;;;;;;;16.67;9.68;;;4.50;99.90;;;;;;5031841;28;20495;-84
2022/04/27 04:10:46;;;;;;;13.50;9.70;;;4.50;99.90;;;;;;5014600;28;20095;-84
2022/04/27 04:13:12;;;;;;;21.67;9.55;;;4.80;99.90;;;;;;5014302;28;20045;-84
2022/04/27 04:15:38;;;;;;;17.73;9.32;;;4.60;99.90;;;;;;5030849;28;20140;-84
2022/04/27 04:18:04;;;;;;;19.65;9.70;;;4.60;99.90;;;;;;5014621;28;20132;-87
2022/04/27 04:20:30;;;;;;;16.77;9.70;;;4.70;99.90;;;;;;5034598;28;20497;-84
2022/04/27 04:22:57;;;;;;;18.20;9.75;;;4.70;99.90;;;;;;5051833;28;20057;-84
2022/04/27 04:30:51;;;;;;;21.27;9.27;;;4.80;99.90;;;;;;5051925;28;20095;-84
2022/04/27 04:33:16;;;;;;;14.73;8.07;;;4.80;99.90;;;;;;5033379;28;20092;-84
2022/04/27 04:35:42;;;;;;;14.27;8.35;;;4.90;99.90;;;;;;5033884;28;20080;-84
2022/04/27 04:38:08;;;;;;;13.07;8.25;;;5.00;99.90;;;;;;5033830;28;20411;-84
2022/04/27 04:40:34;;;;;;;16.45;9.90;;;4.90;99.90;;;;;;5051861;28;20136;-84
2022/04/27 04:42:59;;;;;;;14.32;9.38;;;5.10;99.90;;;;;;5017997;28;20071;-84
2022/04/27 04:45:25;;;;;;;14.35;9.10;;;5.10;99.90;;;;;;5037805;28;20041;-84
2022/04/27 04:47:51;;;;;;;15.45;9.20;;;5.40;99.90;;;;;;5037895;28;20044;-84
2022/04/27 04:50:17;;;;;;;12.30;8.98;;;5.20;99.90;;;;;;5037661;28;20097;-84
2022/04/27 04:52:45;;;;;;;23.70;8.77;;;5.30;99.90;;;;;;5037283;28;20041;-84
2022/04/27 04:55:12;;;;;;;15.65;8.40;;;5.50;99.90;;;;;;5055518;28;20411;-85
2022/04/27 04:57:38;;;;;;;16.58;9.27;;;5.40;99.90;;;;;;5055394;28;20045;-84
2022/04/27 05:00:09;;;;;;;14.70;8.75;;;5.70;99.90;;;;;;5037592;28;20375;-84
2022/04/27 05:02:34;;;;;;;16.55;8.90;;;5.60;99.90;;;;;;5037337;28;20045;-85
2022/04/27 05:05:04;;;;;;;14.52;9.00;;;5.70;99.90;;;;;;5036812;28;20049;-85
2022/04/27 05:07:33;;;;;;;14.52;9.00;;;5.70;99.90;;;;;;5037602;28;20055;-84
2022/04/27 05:09:59;;;;;;;14.23;9.45;;;6.10;99.90;;;;;;5037492;28;20560;-84
2022/04/27 05:12:25;;;;;;;16.42;9.48;;;5.90;99.90;;;;;;5054958;28;20041;-84
2022/04/27 05:14:51;;;;;;;15.27;8.95;;;5.90;99.90;;;;;;5055237;28;20468;-84
2022/04/27 05:17:17;;;;;;;13.45;7.78;;;6.00;99.90;;;;;;5037057;28;20375;-83
2022/04/27 05:19:43;;;;;;;12.98;9.02;;;6.10;99.90;;;;;;5054640;28;20106;-85
2022/04/27 05:22:09;;;;;;;14.93;8.90;;;6.10;99.90;;;;;;5054934;28;20049;-84
2022/04/27 05:24:35;;;;;;;12.88;8.98;;;6.30;99.90;;;;;;5054938;28;20414;-84
2022/04/27 05:27:01;;;;;;;13.57;9.32;;;6.20;99.90;;;;;;5054802;28;20041;-85
2022/04/27 05:32:12;;;;;;;16.73;8.60;;;6.20;99.90;;;;;;5036946;28;20402;-84
2022/04/27 05:34:39;;;;;;;13.30;8.48;;;6.30;99.90;;;;;;5036839;28;20430;-84
2022/04/27 05:37:05;;;;;;;13.60;8.43;;;6.40;99.90;;;;;;5054634;28;20059;-84
2022/04/27 05:39:31;;;;;;;12.95;7.95;;;6.40;99.90;;;;;;5037269;28;20092;-84
2022/04/27 05:41:57;;;;;;;16.48;8.02;;;6.50;99.90;;;;;;5036889;28;20477;-84
2022/04/27 05:44:24;;;;;;;12.82;7.95;;;6.60;99.90;;;;;;5054490;28;20088;-85
2022/04/27 05:46:51;;;;;;;13.65;8.10;;;6.70;99.90;;;;;;5036660;28;20053;-84
2022/04/27 05:49:17;;;;;;;11.98;7.78;;;6.60;99.90;;;;;;5036444;28;20091;-85
2022/04/27 05:51:43;;;;;;;13.93;8.70;;;6.80;99.90;;;;;;5053406;28;20080;-84
2022/04/27 05:54:09;;;;;;;12.93;7.82;;;6.80;99.90;;;;;;5054185;28;20044;-84
2022/04/27 05:56:35;;;;;;;10.50;6.50;;;6.90;99.90;;;;;;5035706;28;20080;-85
2022/04/27 05:59:01;;;;;;;13.00;7.78;;;7.00;99.90;;;;;;5054274;28;20396;-84
2022/04/27 06:01:28;;;;;;;13.65;8.55;;;7.10;99.90;;;;;;5054043;28;20123;-84
2022/04/27 06:03:54;;;;;;;14.93;8.10;;;7.30;99.90;;;;;;5053776;28;20044;-86
2022/04/27 06:06:21;;;;;;;12.93;7.70;;;7.30;99.90;;;;;;5036641;28;20087;-88
2022/04/27 06:08:46;;;;;;;12.38;7.55;;;7.40;99.90;;;;;;5053871;28;20089;-85
2022/04/27 06:11:13;;;;;;;11.30;7.20;;;7.50;99.90;;;;;;5036307;28;20041;-85
2022/04/27 06:13:38;;;;;;;11.25;6.03;;;7.70;99.90;;;;;;5053858;28;20402;-85
2022/04/27 06:16:04;;;;;;;16.88;6.78;;;7.80;99.90;;;;;;5038169;28;20061;-85
2022/04/27 06:18:30;;;;;;;12.95;7.25;;;7.90;99.90;;;;;;5030512;28;20547;-85
2022/04/27 06:20:56;;;;;;;10.40;6.00;;;8.10;99.90;;;;;;5050466;28;20092;-85
2022/04/27 06:23:23;;;;;;;11.50;5.32;;;8.30;99.90;;;;;;5062309;28;20044;-87
2022/04/27 06:25:49;;;;;;;10.70;5.35;;;8.30;99.90;;;;;;5054805;28;20096;-85
2022/04/27 06:28:19;;;;;;;9.57;4.55;;;8.60;99.90;;;;;;5045104;28;20102;-85
2022/04/27 06:30:45;;;;;;;9.93;5.15;;;8.70;99.90;;;;;;5053803;28;20052;-86
2022/04/27 06:33:10;;;;;;;8.35;5.25;;;9.20;99.90;;;;;;5062765;28;20056;-86
2022/04/27 06:35:37;;;;;;;14.27;5.13;;;9.00;99.90;;;;;;5037710;28;20057;-85
2022/04/27 06:38:03;;;;;;;9.27;4.68;;;9.10;99.90;;;;;;5060969;28;20044;-85
2022/04/27 06:40:29;;;;;;;8.02;4.32;;;9.20;99.90;;;;;;5052047;28;20099;-85
2022/04/27 06:42:56;;;;;;;7.30;4.50;;;9.30;99.90;;;;;;5032337;28;20812;-85
2022/04/27 06:45:27;;;;;;;8.05;4.20;;;9.60;99.90;;;;;;5037925;28;20056;-85
2022/04/27 06:47:57;;;;;;;8.27;3.78;;;9.50;99.90;;;;;;5046638;28;20049;-86
2022/04/27 06:50:23;;;;;;;5.72;4.30;;;9.60;99.90;;;;;;5021738;28;20136;-86
2022/04/27 06:52:49;;;;;;;8.32;4.50;;;9.70;99.90;;;;;;5041561;28;20119;-86
2022/04/27 06:55:16;;;;;;;9.25;4.85;;;9.80;99.90;;;;;;5073210;28;20048;-85
2022/04/27 06:57:42;;;;;;;10.25;5.35;;;9.80;99.90;;;;;;5051561;28;20049;-85
2022/04/27 07:00:08;;;;;;;9.48;5.75;;;9.90;99.90;;;;;;5052947;28;20132;-85
2022/04/27 07:02:35;;;;;;;8.27;5.18;;;9.90;99.90;;;;;;5035361;28;20088;-86
2022/04/27 07:05:20;;;;;;;10.63;5.05;;;10.00;99.90;;;;;;5052648;28;20084;-85
2022/04/27 07:07:46;;;;;;;8.93;3.65;;;10.10;99.90;;;;;;5053563;28;20130;-86
2022/04/27 07:10:14;;;;;;;7.00;4.72;;;10.20;99.90;;;;;;5053098;28;20049;-85
2022/04/27 07:12:42;;;;;;;8.05;3.67;;;10.40;99.90;;;;;;5035372;28;20049;-86
2022/04/27 07:15:09;;;;;;;6.88;4.32;;;10.60;99.90;;;;;;5052916;28;20380;-88
2022/04/27 07:17:34;;;;;;;10.00;4.60;;;10.80;99.90;;;;;;5052413;28;20539;-87
2022/04/27 07:20:00;;;;;;;9.43;4.50;;;11.00;99.90;;;;;;5055132;28;20057;-87
2022/04/27 07:22:26;;;;;;;8.23;4.35;;;11.30;99.90;;;;;;5047156;28;20052;-87
2022/04/27 07:24:54;;;;;;;5.07;3.80;;;11.10;99.90;;;;;;5025257;28;20057;-88
2022/04/27 07:27:19;;;;;;;5.32;3.70;;;11.20;99.90;;;;;;5015154;28;20053;-87
2022/04/27 07:29:47;;;;;;;6.90;3.75;;;11.30;99.90;;;;;;5015009;28;20527;-87
2022/04/27 07:32:13;;;;;;;7.85;3.90;;;11.50;99.90;;;;;;5047124;28;20102;-87
2022/04/27 07:34:39;;;;;;;6.10;3.90;;;11.50;99.90;;;;;;5016425;28;20135;-87
2022/04/27 07:37:05;;;;;;;5.15;3.70;;;11.50;99.90;;;;;;5050346;28;20056;-87
2022/04/27 07:39:32;;;;;;;8.90;4.25;;;11.40;99.90;;;;;;5034418;28;20458;-87
2022/04/27 07:41:58;;;;;;;11.82;4.00;;;11.60;99.90;;;;;;5015455;28;20050;-87
2022/04/27 07:44:24;;;;;;;7.07;3.92;;;11.60;99.90;;;;;;5017904;28;20049;-87
2022/04/27 07:46:50;;;;;;;7.13;4.15;;;11.70;99.90;;;;;;5034633;28;20052;-87
2022/04/27 07:49:19;;;;;;;8.23;4.20;;;11.70;99.90;;;;;;5034456;28;20084;-87
2022/04/27 07:51:46;;;;;;;8.23;4.32;;;12.00;99.90;;;;;;5035131;28;20041;-87
2022/04/27 07:54:12;;;;;;;6.68;3.63;;;11.70;99.90;;;;;;5052264;28;20118;-88
2022/04/27 07:56:38;;;;;;;5.75;3.50;;;11.70;99.90;;;;;;5032217;28;20538;-87
2022/04/27 07:59:03;;;;;;;6.80;2.72;;;11.60;99.90;;;;;;5052222;28;20135;-86
2022/04/27 08:01:30;;;;;;;5.95;2.50;;;11.60;99.90;;;;;;5034419;28;20053;-85
2022/04/27 08:03:56;;;;;;;4.25;2.20;;;11.60;99.90;;;;;;5030576;28;20064;-88
2022/04/27 08:06:22;;;;;;;9.05;2.60;;;11.50;99.90;;;;;;5003953;28;20049;-85
2022/04/27 08:08:48;;;;;;;4.40;2.35;;;11.70;99.90;;;;;;5051140;28;20052;-88
2022/04/27 08:11:15;;;;;;;5.07;2.35;;;11.80;99.90;;;;;;5034271;28;20130;-86
2022/04/27 08:13:44;;;;;;;4.38;2.40;;;11.80;99.90;;;;;;5051745;28;20044;-86
2022/04/27 08:16:13;;;;;;;5.10;1.92;;;11.90;99.90;;;;;;5031972;28;20048;-87
2022/04/27 08:18:39;;;;;;;3.95;1.45;;;12.00;99.90;;;;;;5035087;28;20053;-86
2022/04/27 08:21:14;;;;;;;11.70;1.13;;;12.10;99.90;;;;;;5020730;28;20056;-87
2022/04/27 08:23:41;;;;;;;3.28;1.00;;;12.30;99.90;;;;;;5055801;28;20061;-85
2022/04/27 08:26:08;;;;;;;24.08;6.57;;;12.60;99.30;;;;;;5055748;28;20403;-86
2022/04/27 08:28:34;;;;;;;8.18;1.60;;;13.10;97.20;;;;;;5021613;28;20046;-85
2022/04/27 08:31:00;;;;;;;11.50;2.58;;;13.40;92.70;;;;;;5034018;28;20056;-86
2022/04/27 08:33:26;;;;;;;5.50;1.30;;;13.60;88.00;;;;;;5036005;28;20143;-87
2022/04/27 08:35:57;;;;;;;36.55;7.05;;;13.70;81.20;;;;;;5050313;28;20073;-88
2022/04/27 08:38:24;;;;;;;3.13;1.17;;;13.80;78.50;;;;;;5056706;28;20037;-87
2022/04/27 08:40:49;;;;;;;10.15;1.85;;;13.90;77.30;;;;;;5054731;28;20044;-89
2022/04/27 08:43:15;;;;;;;3.30;0.90;;;14.00;79.40;;;;;;5038035;28;20049;-88
2022/04/27 08:45:43;;;;;;;5.50;1.35;;;14.10;72.90;;;;;;5055118;28;20586;-87
2022/04/27 08:48:10;;;;;;;5.32;1.23;;;14.20;72.10;;;;;;5038883;28;20494;-88
2022/04/27 08:50:36;;;;;;;4.45;1.13;;;14.30;72.30;;;;;;5054447;28;20128;-87
2022/04/27 08:53:03;;;;;;;5.35;1.42;;;14.40;74.20;;;;;;5054185;28;20091;-88
2022/04/27 08:55:29;;;;;;;6.68;1.50;;;14.60;74.90;;;;;;5037457;28;20085;-88
2022/04/27 08:58:06;;;;;;;3.67;1.35;;;14.60;76.20;;;;;;5017216;28;20072;-88
2022/04/27 09:00:32;;;;;;;4.45;1.70;;;14.70;70.90;;;;;;5037479;28;20053;-88
2022/04/27 09:03:24;;;;;;;4.95;1.58;;;14.70;70.80;;;;;;5038411;28;20120;-85
2022/04/27 09:05:55;;;;;;;7.78;1.80;;;14.70;67.60;;;;;;5001467;28;20049;-89
2022/04/27 09:08:23;;;;;;;3.70;1.02;;;14.60;68.50;;;;;;5035649;28;20057;-86
2022/04/27 09:10:48;;;;;;;4.57;1.50;;;14.60;71.00;;;;;;5034936;28;20041;-86
2022/04/27 09:13:14;;;;;;;2.63;1.13;;;14.80;73.50;;;;;;5034386;28;20541;-85
2022/04/27 09:15:40;;;;;;;4.60;1.40;;;14.80;68.00;;;;;;5035391;28;20424;-85
2022/04/27 09:21:01;;;;;;;3.70;1.38;;;15.00;63.90;;;;;;5034621;28;20055;-86
2022/04/27 09:23:29;;;;;;;8.13;2.70;;;14.80;63.20;;;;;;5017498;28;20061;-86
2022/04/27 09:25:57;;;;;;;4.13;1.20;;;14.80;66.30;;;;;;5035105;28;20049;-87
2022/04/27 09:28:29;;;;;;;8.50;1.50;;;14.60;65.70;;;;;;5037274;28;20056;-89
2022/04/27 09:30:58;;;;;;;4.78;1.02;;;14.50;65.90;;;;;;5025461;28;20124;-86
2022/04/27 09:33:36;;;;;;;26.45;2.47;;;14.30;67.20;;;;;;5002870;28;20041;-88
2022/04/27 09:36:22;;;;;;;5.10;1.60;;;14.20;66.40;;;;;;4998580;28;20050;-86
2022/04/27 09:38:47;;;;;;;3.90;1.48;;;14.10;65.20;;;;;;5019319;28;20530;-88
2022/04/27 09:41:13;;;;;;;4.43;1.15;;;14.30;67.10;;;;;;5033103;28;20046;-88
2022/04/27 09:43:47;;;;;;;5.20;1.40;;;14.00;64.60;;;;;;5004650;28;20805;-87
2022/04/27 09:46:29;;;;;;;7.15;1.58;;;13.90;64.50;;;;;;4986276;28;20058;-86
2022/04/27 09:49:04;;;;;;;5.93;1.30;;;13.90;65.50;;;;;;4987777;28;20062;-87
2022/04/27 09:51:32;;;;;;;5.57;1.63;;;13.90;63.50;;;;;;5004144;28;20049;-86
2022/04/27 09:54:00;;;;;;;4.72;1.95;;;13.80;65.20;;;;;;5035650;28;20179;-85
2022/04/27 09:56:33;;;;;;;9.93;1.75;;;13.70;64.80;;;;;;5035694;28;20056;-87
2022/04/27 09:59:03;;;;;;;5.18;1.33;;;13.70;68.80;;;;;;5022665;28;20093;-86
2022/04/27 10:01:36;;;;;;;3.92;1.45;;;13.80;68.00;;;;;;5014934;28;20117;-85
2022/04/27 10:04:06;;;;;;;5.07;1.40;;;13.90;66.10;;;;;;5034512;28;20041;-86
2022/04/27 10:06:34;;;;;;;7.43;1.65;;;14.00;66.40;;;;;;5021345;28;20042;-86
2022/04/27 10:09:02;;;;;;;7.57;1.52;;;14.10;69.10;;;;;;5000588;28;20116;-86
2022/04/27 10:11:31;;;;;;;5.20;1.52;;;14.20;66.20;;;;;;4980598;28;20045;-86
2022/04/27 10:13:57;;;;;;;3.03;1.17;;;14.20;66.50;;;;;;5024344;28;20558;-86
2022/04/27 10:16:25;;;;;;;4.80;1.40;;;14.30;67.90;;;;;;5014139;28;20574;-88
2022/04/27 10:18:51;;;;;;;6.07;1.67;;;14.30;64.40;;;;;;5014147;28;20058;-85
2022/04/27 10:21:39;;;;;;;6.97;1.50;;;14.40;65.70;;;;;;5016814;28;20057;-85
2022/04/27 10:24:09;;;;;;;4.72;1.52;;;14.40;65.30;;;;;;5019859;28;20057;-85
2022/04/27 10:26:35;;;;;;;6.65;1.50;;;14.50;65.30;;;;;;5059483;28;20037;-86
2022/04/27 10:29:05;;;;;;;8.38;1.85;;;14.60;66.60;;;;;;5074199;28;20055;-85
2022/04/27 10:31:43;;;;;;;5.15;1.30;;;14.70;64.40;;;;;;5056080;28;20127;-86
2022/04/27 10:34:22;;;;;;;4.38;1.25;;;14.70;61.70;;;;;;5073499;28;20070;-86
2022/04/27 10:36:52;;;;;;;7.28;1.40;;;14.70;62.90;;;;;;5054600;28;20064;-86
2022/04/27 10:39:28;;;;;;;3.42;1.30;;;14.70;61.40;;;;;;5039339;28;20056;-86
2022/04/27 10:42:15;;;;;;;4.53;1.40;;;14.90;61.10;;;;;;5054984;28;20102;-87
2022/04/27 10:44:50;;;;;;;5.53;1.50;;;15.00;62.00;;;;;;5036489;28;20471;-86
2022/04/27 10:47:20;;;;;;;8.35;1.75;;;15.30;57.70;;;;;;5034846;28;20053;-86
2022/04/27 10:50:15;;;;;;;4.30;1.40;;;15.40;60.80;;;;;;5053329;28;20041;-88
2022/04/27 10:52:52;;;;;;;4.57;1.30;;;15.90;60.80;;;;;;4991411;28;20527;-85
2022/04/27 10:55:38;;;;;;;5.13;1.45;;;16.30;60.00;;;;;;4991488;28;20054;-88
2022/04/27 10:58:12;;;;;;;8.65;1.52;;;16.40;58.10;;;;;;4975626;28;20556;-86
2022/04/27 11:00:58;;;;;;;2.88;1.08;;;16.40;56.70;;;;;;4975358;28;20176;-87
2022/04/27 11:03:36;;;;;;;3.55;1.33;;;16.30;54.80;;;;;;4975294;28;20075;-86
2022/04/27 11:06:21;;;;;;;5.55;1.42;;;16.10;56.70;;;;;;4991695;28;20396;-86
2022/04/27 11:09:09;;;;;;;5.13;1.40;;;16.00;55.20;;;;;;4995312;28;20092;-90
2022/04/27 11:11:52;;;;;;;2.80;1.20;;;15.70;57.10;;;;;;4989151;28;20053;-86
2022/04/27 11:14:19;;;;;;;4.60;1.42;;;15.50;56.10;;;;;;4998036;28;20499;-87
2022/04/27 11:16:49;;;;;;;5.72;1.45;;;15.20;59.80;;;;;;4977139;28;20060;-87
2022/04/27 11:19:16;;;;;;;8.07;1.50;;;15.30;60.00;;;;;;4982832;28;20049;-86
2022/04/27 11:21:42;;;;;;;7.60;1.70;;;15.50;60.50;;;;;;4998416;28;20297;-87
2022/04/27 11:24:11;;;;;;;5.78;1.70;;;15.20;60.50;;;;;;4996247;28;20104;-86
2022/04/27 11:26:44;;;;;;;4.60;1.48;;;15.70;59.70;;;;;;4979865;28;20057;-86
2022/04/27 11:29:12;;;;;;;8.27;1.67;;;16.20;58.90;;;;;;5030049;28;20060;-88
2022/04/27 11:31:38;;;;;;;5.55;1.52;;;16.80;56.40;;;;;;5060081;28;20076;-87
2022/04/27 11:34:24;;;;;;;5.20;1.73;;;17.50;56.00;;;;;;5042177;28;20076;-87
2022/04/27 11:36:51;;;;;;;5.07;1.42;;;18.20;53.60;;;;;;5029699;28;20067;-87
2022/04/27 11:39:26;;;;;;;5.70;1.70;;;18.50;52.40;;;;;;5037527;28;20099;-88
2022/04/27 11:42:02;;;;;;;6.00;1.50;;;18.60;51.70;;;;;;5059564;28;20046;-87
2022/04/27 11:44:29;;;;;;;5.15;1.42;;;18.30;51.10;;;;;;5042606;28;20048;-88
2022/04/27 11:46:56;;;;;;;4.28;1.35;;;18.00;53.10;;;;;;5053788;28;20485;-89
2022/04/27 11:49:23;;;;;;;6.88;1.60;;;17.60;53.50;;;;;;5061236;28;20113;-90
2022/04/27 11:51:49;;;;;;;6.80;1.58;;;17.30;53.40;;;;;;5028341;28;20041;-90
2022/04/27 11:54:44;;;;;;;6.75;1.55;;;17.00;53.30;;;;;;5043864;28;20056;-86
2022/04/27 11:57:12;;;;;;;10.00;1.83;;;16.80;52.40;;;;;;4972778;28;20070;-86
2022/04/27 11:59:45;;;;;;;4.68;1.65;;;16.70;54.00;;;;;;4974958;28;20393;-87
2022/04/27 12:02:11;;;;;;;7.55;2.15;;;16.50;55.60;;;;;;4994703;28;20452;-87
2022/04/27 12:04:37;;;;;;;4.68;1.52;;;16.20;54.80;;;;;;4978047;28;20050;-87
2022/04/27 12:07:13;;;;;;;29.67;15.63;;;16.00;56.60;;;;;;4974009;28;20051;-87
2022/04/27 12:09:38;;;;;;;6.25;2.30;;;15.90;56.90;;;;;;4982611;28;20088;-86
2022/04/27 12:12:11;;;;;;;9.05;2.10;;;15.90;57.00;;;;;;4994518;28;20472;-85
2022/04/27 12:14:41;;;;;;;5.25;1.90;;;15.80;56.00;;;;;;4984794;28;20133;-86
2022/04/27 12:17:06;;;;;;;5.80;1.73;;;15.80;56.20;;;;;;4968174;28;20112;-85
2022/04/27 12:19:33;;;;;;;7.15;1.90;;;15.60;56.70;;;;;;4986804;28;20082;-87
2022/04/27 12:22:15;;;;;;;6.25;1.73;;;15.60;56.30;;;;;;4977069;28;20093;-88
2022/04/27 12:24:45;;;;;;;5.63;1.90;;;15.50;57.30;;;;;;4975012;28;20100;-87
2022/04/27 12:27:20;;;;;;;5.05;1.45;;;15.40;57.50;;;;;;4958910;28;20074;-86
2022/04/27 12:29:47;;;;;;;5.50;1.90;;;15.50;57.00;;;;;;4974942;28;20046;-88
2022/04/27 12:32:13;;;;;;;5.97;2.00;;;15.50;57.80;;;;;;4958979;28;20126;-87
2022/04/27 12:37:31;;;;;;;6.93;2.28;;;15.30;58.60;;;;;;5018601;28;20442;-89
2022/04/27 12:40:10;;;;;;;10.98;2.15;;;15.30;59.30;;;;;;5035112;28;20053;-87
2022/04/27 12:42:37;;;;;;;8.48;2.40;;;15.30;59.80;;;;;;5002121;28;20129;-87
2022/04/27 12:45:12;;;;;;;6.63;2.15;;;15.10;59.80;;;;;;5018175;28;20049;-87
2022/04/27 12:47:48;;;;;;;6.47;2.60;;;15.00;61.90;;;;;;5035997;28;20403;-87
2022/04/27 12:50:14;;;;;;;4.97;2.55;;;14.80;63.10;;;;;;5018296;28;20053;-87
2022/04/27 12:52:41;;;;;;;7.78;2.50;;;14.60;62.30;;;;;;5017886;28;20567;-86
2022/04/27 12:55:14;;;;;;;7.30;2.42;;;14.40;64.50;;;;;;5035981;28;20092;-86
2022/04/27 12:57:55;;;;;;;6.18;2.33;;;14.30;64.70;;;;;;5035458;28;20085;-87
2022/04/27 13:00:42;;;;;;;;;;;14.30;66.50;;;;;;5018617;28;20049;-86
2022/04/27 13:03:09;;;;;;;7.10;2.70;;;14.10;67.80;;;;;;5017781;28;20008;-86
2022/04/27 13:05:40;;;;;;;5.40;2.75;;;14.10;67.60;;;;;;5035092;28;20045;-86
2022/04/27 13:08:10;;;;;;;9.38;2.88;;;14.30;67.90;;;;;;5017996;28;20080;-86
2022/04/27 13:13:22;;;;;;;9.65;3.38;;;14.10;70.40;;;;;;5017473;28;20149;-86